Time;durP1;ratioP1;P1;durP2;ratioP2;P2;SDS_P1;SDS_P2;PMS_P1;PMS_P2;Temp;Humidity;BMP_temperature;BMP_pressure;BME280_temperature;BME280_humidity;BME280_pressure;Samples;Min_cycle;Max_cycle;Signal;HPM_P1;HPM_P2
2021/05/25 00:01:12;;;;;;;7.40;3.05;;;11.40;93.40;;;;;;4955609;29;20027;-81
2021/05/25 00:03:37;;;;;;;6.25;2.78;;;11.30;93.40;;;;;;4954807;29;20059;-81
2021/05/25 00:06:03;;;;;;;7.20;3.35;;;11.30;93.50;;;;;;4955057;29;20020;-80
2021/05/25 00:08:29;;;;;;;7.22;3.60;;;11.30;93.50;;;;;;4954446;29;20034;-81
2021/05/25 00:10:55;;;;;;;6.07;3.20;;;11.30;93.40;;;;;;4955958;29;20031;-82
2021/05/25 00:13:21;;;;;;;7.57;3.50;;;11.30;93.40;;;;;;4938233;29;20035;-81
2021/05/25 00:15:52;;;;;;;8.23;3.60;;;11.30;93.40;;;;;;4956193;29;20019;-80
2021/05/25 00:18:18;;;;;;;6.97;3.58;;;11.30;93.40;;;;;;4955770;29;20039;-81
2021/05/25 00:20:44;;;;;;;7.40;3.92;;;11.30;93.30;;;;;;4957332;29;20019;-80
2021/05/25 00:23:10;;;;;;;7.40;3.83;;;11.30;93.60;;;;;;4956567;29;20098;-81
2021/05/25 00:25:35;;;;;;;8.68;4.50;;;11.30;93.20;;;;;;4955575;29;20054;-81
2021/05/25 00:28:01;;;;;;;7.55;4.45;;;11.20;93.10;;;;;;4954083;29;20106;-82
2021/05/25 00:30:27;;;;;;;7.03;3.55;;;11.20;93.30;;;;;;4953995;29;20110;-81
2021/05/25 00:32:52;;;;;;;5.65;3.17;;;11.20;93.20;;;;;;4956071;29;20031;-81
2021/05/25 00:35:18;;;;;;;9.50;3.88;;;11.20;93.30;;;;;;4954080;29;20055;-81
2021/05/25 00:37:44;;;;;;;7.13;3.17;;;11.20;93.30;;;;;;4954958;29;20026;-81
2021/05/25 00:40:11;;;;;;;8.85;4.18;;;11.10;93.20;;;;;;4938618;29;20027;-81
2021/05/25 00:42:38;;;;;;;6.47;3.35;;;11.10;93.30;;;;;;4956347;29;20082;-81
2021/05/25 00:45:06;;;;;;;8.05;3.72;;;11.10;93.30;;;;;;4954542;29;20023;-82
2021/05/25 00:47:35;;;;;;;7.20;4.38;;;11.20;93.40;;;;;;4954038;29;20031;-82
2021/05/25 00:50:12;;;;;;;6.15;3.55;;;11.20;93.40;;;;;;4956692;29;20027;-81
2021/05/25 00:52:40;;;;;;;8.20;4.30;;;11.20;93.30;;;;;;4938062;29;20479;-81
2021/05/25 00:55:06;;;;;;;9.77;4.00;;;11.20;93.30;;;;;;4955146;29;20424;-81
2021/05/25 00:57:32;;;;;;;8.93;3.83;;;11.20;93.20;;;;;;4937437;29;20027;-81
2021/05/25 00:59:58;;;;;;;8.27;3.47;;;11.20;93.20;;;;;;4955078;29;20383;-81
2021/05/25 01:02:24;;;;;;;8.70;4.10;;;11.30;93.10;;;;;;4952999;29;20062;-81
2021/05/25 01:04:49;;;;;;;10.27;3.90;;;11.30;93.00;;;;;;4955488;29;20028;-81
2021/05/25 01:07:15;;;;;;;8.82;4.03;;;11.30;93.00;;;;;;4954540;28;20031;-83
2021/05/25 01:09:41;;;;;;;8.38;3.88;;;11.30;92.90;;;;;;4954735;29;20444;-81
2021/05/25 01:12:09;;;;;;;7.55;3.67;;;11.20;92.90;;;;;;4953527;29;20038;-81
2021/05/25 01:14:42;;;;;;;6.78;4.07;;;11.20;92.90;;;;;;4953123;29;20031;-81
2021/05/25 01:17:08;;;;;;;7.95;3.80;;;11.10;92.90;;;;;;4954943;29;20070;-81
2021/05/25 01:19:33;;;;;;;7.63;3.90;;;11.20;93.00;;;;;;4954193;29;20035;-83
2021/05/25 01:21:59;;;;;;;5.85;2.95;;;11.20;93.00;;;;;;4954565;29;20031;-82
2021/05/25 01:24:34;;;;;;;8.43;4.18;;;11.30;92.90;;;;;;4953010;29;20130;-81
2021/05/25 01:27:03;;;;;;;8.15;3.05;;;11.30;92.90;;;;;;4953560;29;20031;-81
2021/05/25 01:29:28;;;;;;;8.50;2.95;;;11.20;92.80;;;;;;4937072;29;20374;-82
2021/05/25 01:31:54;;;;;;;6.22;2.95;;;11.20;92.80;;;;;;4954693;29;20109;-82
2021/05/25 01:34:20;;;;;;;5.63;2.47;;;11.10;92.70;;;;;;4953147;29;20356;-81
2021/05/25 01:36:46;;;;;;;5.20;2.53;;;11.10;92.60;;;;;;4953483;29;20024;-81
2021/05/25 01:39:13;;;;;;;5.18;2.72;;;11.00;92.70;;;;;;4953389;29;20034;-80
2021/05/25 01:41:40;;;;;;;4.10;2.42;;;10.90;92.70;;;;;;4954024;29;20039;-82
2021/05/25 01:44:06;;;;;;;4.57;2.40;;;10.90;92.80;;;;;;4954199;29;20035;-81
2021/05/25 01:46:32;;;;;;;6.80;3.00;;;10.90;92.80;;;;;;4952560;29;20027;-81
2021/05/25 01:48:57;;;;;;;7.32;2.45;;;10.90;92.80;;;;;;4954170;29;20031;-82
2021/05/25 01:51:23;;;;;;;4.15;2.15;;;10.80;92.70;;;;;;4953726;29;20077;-81
2021/05/25 01:53:49;;;;;;;6.75;2.72;;;10.80;92.70;;;;;;4937422;29;20034;-81
2021/05/25 01:56:16;;;;;;;3.72;2.17;;;10.80;92.60;;;;;;4954430;29;20400;-81
2021/05/25 01:58:42;;;;;;;5.78;2.60;;;10.80;92.60;;;;;;4953895;29;20034;-81
2021/05/25 02:01:10;;;;;;;3.88;2.10;;;10.80;92.50;;;;;;4953249;29;20110;-82
2021/05/25 02:03:38;;;;;;;3.83;2.30;;;10.80;92.60;;;;;;4935773;29;20051;-81
2021/05/25 02:06:05;;;;;;;6.25;2.25;;;10.80;92.60;;;;;;4936772;29;20082;-81
2021/05/25 02:08:31;;;;;;;3.90;2.10;;;10.80;92.40;;;;;;4936441;29;20034;-82
2021/05/25 02:11:01;;;;;;;3.50;2.00;;;10.80;92.40;;;;;;4937574;29;20032;-81
2021/05/25 02:13:32;;;;;;;4.68;2.35;;;10.80;92.40;;;;;;4952214;29;20053;-82
2021/05/25 02:16:04;;;;;;;3.33;1.52;;;10.80;92.10;;;;;;4954702;29;20026;-81
2021/05/25 02:18:34;;;;;;;3.00;1.70;;;10.70;92.20;;;;;;4954446;28;20059;-81
2021/05/25 02:21:04;;;;;;;2.72;1.67;;;10.70;92.10;;;;;;4958128;29;20019;-81
2021/05/25 02:23:30;;;;;;;5.22;1.95;;;10.60;92.10;;;;;;4940313;29;20075;-81
2021/05/25 02:25:56;;;;;;;2.42;1.58;;;10.60;92.10;;;;;;4958580;29;20059;-81
2021/05/25 02:28:22;;;;;;;3.72;1.70;;;10.50;92.10;;;;;;4940310;29;20019;-80
2021/05/25 02:30:48;;;;;;;2.63;1.50;;;10.50;92.10;;;;;;4940581;29;20051;-81
2021/05/25 02:33:18;;;;;;;4.53;1.63;;;10.50;92.10;;;;;;4957777;29;20043;-81
2021/05/25 02:35:44;;;;;;;2.72;1.50;;;10.50;92.10;;;;;;4940353;29;20027;-81
2021/05/25 02:38:12;;;;;;;3.60;1.63;;;10.60;92.10;;;;;;4940892;29;20353;-81
2021/05/25 02:40:39;;;;;;;3.22;1.80;;;10.60;92.10;;;;;;4941278;29;20024;-81
2021/05/25 02:43:05;;;;;;;3.47;1.33;;;10.50;92.00;;;;;;4972147;29;20059;-81
2021/05/25 02:45:33;;;;;;;6.25;2.00;;;10.50;91.80;;;;;;4965593;29;20023;-81
2021/05/25 02:47:58;;;;;;;4.03;1.77;;;10.50;91.90;;;;;;4957848;29;20024;-82
2021/05/25 02:50:25;;;;;;;6.68;2.17;;;10.50;91.70;;;;;;4940177;29;20094;-82
2021/05/25 02:52:52;;;;;;;5.22;1.67;;;10.40;91.70;;;;;;4957815;29;20083;-81
2021/05/25 02:55:21;;;;;;;4.15;1.60;;;10.40;91.80;;;;;;4957276;29;20453;-81
2021/05/25 02:57:47;;;;;;;3.65;1.60;;;10.30;91.80;;;;;;4956847;29;20027;-81
2021/05/25 03:00:19;;;;;;;6.50;1.83;;;10.30;91.90;;;;;;4957685;29;20027;-80
2021/05/25 03:02:46;;;;;;;4.40;1.80;;;10.30;92.00;;;;;;4939358;29;20055;-81
2021/05/25 03:05:13;;;;;;;4.63;1.65;;;10.20;91.90;;;;;;4956343;29;20155;-81
2021/05/25 03:07:39;;;;;;;2.65;1.50;;;10.20;92.00;;;;;;4939416;29;20027;-80
2021/05/25 03:10:10;;;;;;;3.20;1.67;;;10.20;92.10;;;;;;4956285;29;20494;-81
2021/05/25 03:12:37;;;;;;;3.15;1.83;;;10.20;92.00;;;;;;4939487;29;20139;-81
2021/05/25 03:15:09;;;;;;;3.80;1.85;;;10.10;91.80;;;;;;4939899;29;20042;-81
2021/05/25 03:17:35;;;;;;;3.90;1.73;;;10.00;91.90;;;;;;4956187;29;20060;-81
2021/05/25 03:20:01;;;;;;;4.90;2.13;;;10.00;92.00;;;;;;4955636;29;20113;-82
2021/05/25 03:22:27;;;;;;;2.90;1.70;;;10.00;91.90;;;;;;4955046;29;20027;-81
2021/05/25 03:24:53;;;;;;;3.30;1.60;;;9.90;92.00;;;;;;4956878;29;20079;-81
2021/05/25 03:27:19;;;;;;;3.85;1.70;;;9.90;92.00;;;;;;4956993;29;20029;-81
2021/05/25 03:29:44;;;;;;;4.53;1.65;;;9.90;92.00;;;;;;4955319;28;20027;-81
2021/05/25 03:32:10;;;;;;;4.60;2.03;;;9.90;91.90;;;;;;4954902;29;20045;-81
2021/05/25 03:34:36;;;;;;;4.00;1.77;;;9.90;91.80;;;;;;4956202;28;20023;-78
2021/05/25 03:37:02;;;;;;;3.97;2.17;;;9.90;91.90;;;;;;4945936;29;20563;-77
2021/05/25 03:39:27;;;;;;;3.15;1.65;;;9.90;91.90;;;;;;4919992;29;20487;-78
2021/05/25 03:41:54;;;;;;;3.38;1.52;;;9.80;91.90;;;;;;4925532;29;20463;-78
2021/05/25 03:44:20;;;;;;;4.90;2.10;;;9.80;91.90;;;;;;4955662;29;20043;-79
2021/05/25 03:46:46;;;;;;;3.78;1.50;;;9.80;91.70;;;;;;4937933;29;20020;-78
2021/05/25 03:49:12;;;;;;;3.88;1.73;;;9.80;91.90;;;;;;4939065;29;20027;-78
2021/05/25 03:51:37;;;;;;;4.65;1.85;;;9.80;91.90;;;;;;4938856;29;20026;-77
2021/05/25 03:54:50;;;;;;;5.50;2.13;;;9.90;91.90;;;;;;4939270;29;20023;-78
2021/05/25 03:56:57;;;;;;;4.18;2.10;;;10.00;91.80;;;;;;4950777;28;20023;-78
2021/05/25 03:59:23;;;;;;;3.97;1.75;;;10.00;91.80;;;;;;4956209;29;20028;-79
2021/05/25 04:01:49;;;;;;;4.38;2.05;;;10.00;91.60;;;;;;4938803;29;20023;-79
2021/05/25 04:04:15;;;;;;;4.50;1.95;;;10.10;91.70;;;;;;4956329;28;20047;-77
2021/05/25 04:06:41;;;;;;;3.17;1.77;;;10.10;91.60;;;;;;4938767;29;20440;-78
2021/05/25 04:09:08;;;;;;;3.08;1.65;;;10.10;91.60;;;;;;4939004;29;20023;-79
2021/05/25 04:11:34;;;;;;;4.32;2.28;;;10.20;91.60;;;;;;4938553;29;20024;-78
2021/05/25 04:14:00;;;;;;;5.20;1.77;;;10.20;91.50;;;;;;4938645;29;20020;-78
2021/05/25 04:16:26;;;;;;;4.13;1.75;;;10.20;91.40;;;;;;4938927;29;20485;-77
2021/05/25 04:18:52;;;;;;;4.47;2.10;;;10.20;91.50;;;;;;4955350;29;20065;-77
2021/05/25 04:21:18;;;;;;;4.40;2.65;;;10.30;91.40;;;;;;4956155;29;20115;-78
2021/05/25 04:23:47;;;;;;;4.25;2.03;;;10.30;91.40;;;;;;4938511;29;20035;-77
2021/05/25 04:26:13;;;;;;;5.70;2.47;;;10.30;91.40;;;;;;4938871;29;20062;-77
2021/05/25 04:28:38;;;;;;;7.55;2.38;;;10.40;91.30;;;;;;4955463;29;20086;-80
2021/05/25 04:31:04;;;;;;;8.32;2.47;;;10.30;91.20;;;;;;4955855;29;20488;-77
2021/05/25 04:33:30;;;;;;;7.13;2.40;;;10.30;91.20;;;;;;4938439;29;20031;-78
2021/05/25 04:35:56;;;;;;;4.05;2.25;;;10.30;91.20;;;;;;4955463;29;20385;-77
2021/05/25 04:38:22;;;;;;;5.45;2.50;;;10.20;91.30;;;;;;4938579;29;20034;-76
2021/05/25 04:40:47;;;;;;;4.55;2.25;;;10.20;91.30;;;;;;4937734;28;20035;-76
2021/05/25 04:43:13;;;;;;;6.65;2.47;;;10.30;91.30;;;;;;4937008;29;20039;-79
2021/05/25 04:45:39;;;;;;;6.57;2.75;;;10.30;91.30;;;;;;4936727;29;20027;-78
2021/05/25 04:48:06;;;;;;;5.20;2.63;;;10.30;91.30;;;;;;4955285;29;20023;-76
2021/05/25 04:50:33;;;;;;;6.55;3.13;;;10.20;91.30;;;;;;4937807;29;20507;-83
2021/05/25 04:53:01;;;;;;;5.00;2.55;;;10.20;91.40;;;;;;4954980;29;20023;-77
2021/05/25 04:55:27;;;;;;;6.90;2.88;;;10.30;91.40;;;;;;4937989;29;20488;-76
2021/05/25 04:57:53;;;;;;;6.22;2.92;;;10.40;91.30;;;;;;4937282;29;20066;-77
2021/05/25 05:00:25;;;;;;;6.88;3.47;;;10.40;91.20;;;;;;4937894;29;20023;-77
2021/05/25 05:02:52;;;;;;;5.80;3.38;;;10.40;91.10;;;;;;4954508;29;20035;-78
2021/05/25 05:05:18;;;;;;;5.57;3.65;;;10.40;91.00;;;;;;4937999;29;20023;-76
2021/05/25 05:07:44;;;;;;;5.13;2.83;;;10.30;91.10;;;;;;4954401;29;20027;-77
2021/05/25 05:10:10;;;;;;;5.97;3.00;;;10.40;91.10;;;;;;4953640;29;20114;-78
2021/05/25 05:12:36;;;;;;;5.72;3.03;;;10.40;91.00;;;;;;4937030;29;20121;-79
2021/05/25 05:15:02;;;;;;;7.20;3.17;;;10.40;90.90;;;;;;4937470;29;20067;-77
2021/05/25 05:17:29;;;;;;;5.93;3.05;;;10.40;90.90;;;;;;4937766;29;20093;-78
2021/05/25 05:19:54;;;;;;;6.97;3.00;;;10.40;90.90;;;;;;4954579;29;20156;-78
2021/05/25 05:22:20;;;;;;;6.63;3.05;;;10.40;91.00;;;;;;4955001;29;20031;-79
2021/05/25 05:24:46;;;;;;;6.78;3.20;;;10.50;90.90;;;;;;4954038;29;20042;-78
2021/05/25 05:27:12;;;;;;;6.22;3.20;;;10.50;90.80;;;;;;4937438;29;20027;-77
2021/05/25 05:29:38;;;;;;;4.10;2.42;;;10.40;90.70;;;;;;4937374;29;20106;-78
2021/05/25 05:32:04;;;;;;;4.65;2.67;;;10.50;90.80;;;;;;4955020;29;20034;-78
2021/05/25 05:34:30;;;;;;;7.57;2.50;;;10.50;90.80;;;;;;4954709;29;20020;-78
2021/05/25 05:36:55;;;;;;;5.00;2.53;;;10.60;90.80;;;;;;4955073;29;20039;-76
2021/05/25 05:39:21;;;;;;;5.50;2.75;;;10.70;90.70;;;;;;4941990;29;20050;-77
2021/05/25 05:41:47;;;;;;;5.20;2.85;;;10.70;90.60;;;;;;4937037;29;20035;-77
2021/05/25 05:44:13;;;;;;;6.28;3.42;;;10.80;90.60;;;;;;4954763;29;20078;-78
2021/05/25 05:46:39;;;;;;;5.55;3.03;;;10.80;90.50;;;;;;4936928;29;20050;-78
2021/05/25 05:49:05;;;;;;;4.38;2.47;;;10.80;90.40;;;;;;4954381;29;20027;-77
2021/05/25 05:51:31;;;;;;;6.85;2.83;;;10.90;90.50;;;;;;4937316;29;20070;-76
2021/05/25 05:53:57;;;;;;;6.13;3.13;;;10.90;90.40;;;;;;4953257;28;20931;-76
2021/05/25 05:56:23;;;;;;;6.40;3.17;;;10.90;90.40;;;;;;4936743;29;20122;-78
2021/05/25 05:58:49;;;;;;;7.72;3.10;;;11.00;90.50;;;;;;4936796;29;20035;-78
2021/05/25 06:01:16;;;;;;;7.50;3.83;;;11.00;90.40;;;;;;4937088;29;20070;-78
2021/05/25 06:03:43;;;;;;;6.60;3.97;;;11.10;90.40;;;;;;4935932;29;20372;-77
2021/05/25 06:06:08;;;;;;;6.30;3.33;;;11.10;90.30;;;;;;4954410;29;20030;-78
2021/05/25 06:08:34;;;;;;;8.35;3.85;;;11.10;90.20;;;;;;4937004;29;20020;-78
2021/05/25 06:11:00;;;;;;;7.07;3.78;;;11.10;90.10;;;;;;4953953;29;20023;-77
2021/05/25 06:13:25;;;;;;;10.93;4.25;;;11.20;90.10;;;;;;4952906;29;20460;-77
2021/05/25 06:15:55;;;;;;;9.80;4.28;;;11.20;90.00;;;;;;4953804;29;20110;-77
2021/05/25 06:18:21;;;;;;;9.32;4.63;;;11.10;90.20;;;;;;4954144;29;20030;-77
2021/05/25 06:20:47;;;;;;;8.48;5.28;;;11.10;89.60;;;;;;4952478;29;20023;-78
2021/05/25 06:23:13;;;;;;;8.02;4.47;;;11.10;89.20;;;;;;4936574;29;20356;-77
2021/05/25 06:25:40;;;;;;;7.90;4.50;;;11.00;89.40;;;;;;4952712;29;20034;-78
2021/05/25 06:28:05;;;;;;;8.27;4.63;;;11.00;89.30;;;;;;4936578;29;20074;-76
2021/05/25 06:30:32;;;;;;;9.05;4.70;;;10.90;89.30;;;;;;4936812;29;20028;-77
2021/05/25 06:32:58;;;;;;;6.93;4.00;;;10.90;89.60;;;;;;4936275;29;20079;-79
2021/05/25 06:35:25;;;;;;;8.23;3.97;;;11.00;89.70;;;;;;4936790;29;20444;-78
2021/05/25 06:37:50;;;;;;;9.70;4.65;;;11.10;89.50;;;;;;4936390;29;20383;-78
2021/05/25 06:40:16;;;;;;;7.80;4.55;;;11.10;89.10;;;;;;4936786;29;20119;-78
2021/05/25 06:42:42;;;;;;;7.35;4.28;;;11.10;88.80;;;;;;4952152;29;20063;-79
2021/05/25 06:45:09;;;;;;;10.30;4.93;;;11.10;88.90;;;;;;4953706;29;20110;-78
2021/05/25 06:47:36;;;;;;;9.80;4.93;;;11.20;89.00;;;;;;4936780;29;20454;-76
2021/05/25 06:50:03;;;;;;;10.73;4.75;;;11.20;88.70;;;;;;4953477;29;20090;-77
2021/05/25 06:52:28;;;;;;;7.93;4.90;;;11.30;88.50;;;;;;4953889;29;20170;-77
2021/05/25 06:54:54;;;;;;;8.98;4.80;;;11.30;88.40;;;;;;4936607;29;20483;-78
2021/05/25 06:57:20;;;;;;;8.50;4.30;;;11.40;88.60;;;;;;4953890;29;20506;-77
2021/05/25 06:59:45;;;;;;;9.63;4.20;;;11.40;88.50;;;;;;4936162;29;20031;-78
2021/05/25 07:02:11;;;;;;;8.38;4.53;;;11.50;88.40;;;;;;4936798;29;20031;-78
2021/05/25 07:04:37;;;;;;;9.82;4.82;;;11.50;88.20;;;;;;4923147;29;20052;-78
2021/05/25 07:07:04;;;;;;;8.73;4.65;;;11.50;88.10;;;;;;4937769;29;20467;-77
2021/05/25 07:09:30;;;;;;;9.18;5.22;;;11.50;88.10;;;;;;4920987;29;20051;-77
2021/05/25 07:11:55;;;;;;;10.07;5.00;;;11.50;87.90;;;;;;4937427;29;20103;-77
2021/05/25 07:14:21;;;;;;;8.55;5.43;;;11.50;87.90;;;;;;4920596;29;20083;-77
2021/05/25 07:16:47;;;;;;;10.40;4.97;;;11.50;88.00;;;;;;4920450;29;20056;-76
2021/05/25 07:19:12;;;;;;;10.70;6.15;;;11.60;87.90;;;;;;4921053;29;20084;-77
2021/05/25 07:21:38;;;;;;;10.93;5.78;;;11.70;87.80;;;;;;4920243;29;20028;-77
2021/05/25 07:24:04;;;;;;;9.52;6.32;;;11.70;87.50;;;;;;4920660;29;20434;-78
2021/05/25 07:26:30;;;;;;;8.13;5.38;;;11.80;87.30;;;;;;4920513;29;20114;-77
2021/05/25 07:28:55;;;;;;;10.80;5.72;;;11.90;87.20;;;;;;4920234;29;20050;-76
2021/05/25 07:31:21;;;;;;;11.25;5.80;;;12.00;86.40;;;;;;4937537;29;20445;-77
2021/05/25 07:33:47;;;;;;;10.68;6.40;;;11.90;86.50;;;;;;4920833;29;20044;-78
2021/05/25 07:36:12;;;;;;;12.07;6.05;;;11.80;86.60;;;;;;4938331;29;20491;-77
2021/05/25 07:38:38;;;;;;;9.13;5.75;;;11.70;86.70;;;;;;4920828;29;20382;-77
2021/05/25 07:41:04;;;;;;;9.98;5.72;;;11.70;87.00;;;;;;4920556;29;20020;-77
2021/05/25 07:43:31;;;;;;;10.55;5.63;;;11.70;87.00;;;;;;4937746;29;20469;-77
2021/05/25 07:45:57;;;;;;;8.70;5.30;;;11.80;87.20;;;;;;4937458;29;20028;-77
2021/05/25 07:48:26;;;;;;;9.82;5.70;;;11.90;87.30;;;;;;4920448;29;20380;-78
2021/05/25 07:50:52;;;;;;;10.32;6.00;;;12.00;87.20;;;;;;4937259;29;20453;-78
2021/05/25 07:53:18;;;;;;;9.00;5.40;;;12.10;86.90;;;;;;4920402;29;20035;-76
2021/05/25 07:55:43;;;;;;;10.57;5.60;;;12.20;87.00;;;;;;4920561;29;20114;-76
2021/05/25 07:58:09;;;;;;;10.20;6.15;;;12.30;86.80;;;;;;4937102;29;20084;-77
2021/05/25 08:00:35;;;;;;;8.38;5.20;;;12.40;86.70;;;;;;4920237;29;20429;-77
2021/05/25 08:03:01;;;;;;;9.52;5.60;;;12.40;86.20;;;;;;4938479;29;20469;-77
2021/05/25 08:05:31;;;;;;;8.77;5.35;;;12.50;86.00;;;;;;4956483;28;20065;-77
2021/05/25 08:07:57;;;;;;;10.55;5.22;;;12.60;86.10;;;;;;4939280;29;20121;-78
2021/05/25 08:10:23;;;;;;;8.73;5.60;;;12.70;85.50;;;;;;4939278;29;20576;-77
2021/05/25 08:12:49;;;;;;;10.50;5.32;;;12.80;85.20;;;;;;4938911;29;20023;-77
2021/05/25 08:15:17;;;;;;;8.25;5.53;;;12.80;85.20;;;;;;4938996;29;20027;-78
2021/05/25 08:17:52;;;;;;;9.40;5.30;;;12.80;85.20;;;;;;4938434;29;20019;-78
2021/05/25 08:20:20;;;;;;;12.05;5.47;;;12.70;85.60;;;;;;4956433;29;20030;-77
2021/05/25 08:22:51;;;;;;;8.40;5.35;;;12.80;85.60;;;;;;4956037;29;20023;-77
2021/05/25 08:25:19;;;;;;;9.13;5.60;;;12.90;85.50;;;;;;4955965;29;20464;-78
2021/05/25 08:27:46;;;;;;;7.80;5.18;;;13.00;85.10;;;;;;4956135;29;20074;-77
2021/05/25 08:30:14;;;;;;;10.65;5.22;;;13.00;84.80;;;;;;4955516;29;20052;-78
2021/05/25 08:32:40;;;;;;;8.18;5.10;;;13.10;84.60;;;;;;4940488;29;20103;-78
2021/05/25 08:35:06;;;;;;;8.32;5.50;;;13.00;84.90;;;;;;4962860;29;20444;-77
2021/05/25 08:37:34;;;;;;;7.60;4.55;;;13.00;85.20;;;;;;4957023;29;20023;-77
2021/05/25 08:40:03;;;;;;;10.07;5.03;;;13.00;85.40;;;;;;4953497;29;20131;-77
2021/05/25 08:42:29;;;;;;;8.70;5.38;;;13.20;85.00;;;;;;4938097;29;20027;-77
2021/05/25 08:44:54;;;;;;;8.77;5.10;;;13.30;84.40;;;;;;4937835;29;20023;-77
2021/05/25 08:47:21;;;;;;;8.13;4.70;;;13.50;84.20;;;;;;4955452;29;20448;-77
2021/05/25 08:49:47;;;;;;;7.40;4.50;;;13.60;83.90;;;;;;4937924;29;20023;-76
2021/05/25 08:52:15;;;;;;;7.15;3.40;;;13.60;83.70;;;;;;4954895;29;20094;-76
2021/05/25 08:54:42;;;;;;;4.07;2.58;;;13.50;83.10;;;;;;4938105;29;20054;-77
2021/05/25 08:57:09;;;;;;;6.15;2.40;;;13.30;82.80;;;;;;4937517;29;20023;-78
2021/05/25 08:59:36;;;;;;;5.00;2.40;;;13.10;82.60;;;;;;4954973;29;20031;-77
2021/05/25 09:02:04;;;;;;;5.80;2.60;;;13.10;82.70;;;;;;4937471;29;20046;-77
2021/05/25 09:04:56;;;;;;;4.60;2.70;;;13.20;82.40;;;;;;4928365;29;20043;-77
2021/05/25 09:07:47;;;;;;;6.22;2.60;;;13.30;82.20;;;;;;4918501;29;20083;-76
2021/05/25 09:10:21;;;;;;;3.75;2.55;;;13.50;81.90;;;;;;4918006;29;20027;-77
2021/05/25 09:12:52;;;;;;;5.10;2.97;;;13.70;80.80;;;;;;4919322;29;20032;-76
2021/05/25 09:15:41;;;;;;;4.93;1.90;;;13.80;79.70;;;;;;4920394;29;20027;-77
2021/05/25 09:18:08;;;;;;;4.43;1.27;;;13.60;78.60;;;;;;4935235;29;20020;-78
2021/05/25 09:20:52;;;;;;;1.13;0.82;;;13.30;78.70;;;;;;4918396;29;20492;-76
2021/05/25 09:23:38;;;;;;;1.60;0.70;;;13.10;78.40;;;;;;4918353;29;20038;-77
2021/05/25 09:26:11;;;;;;;2.20;0.95;;;12.90;77.80;;;;;;4921521;29;20480;-76
2021/05/25 09:28:55;;;;;;;1.23;0.90;;;12.70;78.70;;;;;;4917385;29;20027;-76
2021/05/25 09:31:43;;;;;;;3.78;1.20;;;12.70;79.30;;;;;;4918470;29;20491;-77
2021/05/25 09:34:16;;;;;;;3.00;1.20;;;12.50;81.40;;;;;;4918025;29;20024;-76
2021/05/25 09:36:56;;;;;;;1.85;1.13;;;12.30;82.90;;;;;;4935441;29;20024;-77
2021/05/25 09:39:21;;;;;;;2.70;1.10;;;12.30;84.20;;;;;;4918243;29;20032;-77
2021/05/25 09:42:08;;;;;;;2.90;1.48;;;12.20;84.50;;;;;;4934868;29;20433;-77
2021/05/25 09:44:35;;;;;;;1.00;0.95;;;12.30;85.00;;;;;;4934983;29;20027;-78
2021/05/25 09:47:02;;;;;;;4.28;1.38;;;12.30;86.20;;;;;;4918006;29;20027;-77
2021/05/25 09:49:32;;;;;;;4.55;1.60;;;12.20;88.60;;;;;;4918161;29;20035;-77
2021/05/25 09:52:09;;;;;;;2.37;1.50;;;12.10;89.90;;;;;;4917781;29;20028;-76
2021/05/25 09:54:36;;;;;;;3.95;1.50;;;12.00;90.60;;;;;;4935229;29;20027;-78
2021/05/25 09:57:07;;;;;;;3.75;1.30;;;11.90;91.10;;;;;;4934485;29;20031;-77
2021/05/25 09:59:36;;;;;;;5.78;2.10;;;11.90;91.40;;;;;;4935551;29;20056;-78
2021/05/25 10:02:16;;;;;;;2.75;1.50;;;12.00;91.40;;;;;;4917553;29;20118;-78
2021/05/25 10:05:07;;;;;;;2.28;1.60;;;12.10;91.30;;;;;;4919600;29;20051;-77
2021/05/25 10:07:35;;;;;;;3.00;1.70;;;12.20;91.20;;;;;;4934994;29;20540;-78
2021/05/25 10:10:03;;;;;;;3.45;1.80;;;12.30;91.10;;;;;;4935593;29;20027;-77
2021/05/25 10:12:30;;;;;;;4.80;2.05;;;12.40;91.00;;;;;;4918014;29;20071;-77
2021/05/25 10:14:57;;;;;;;3.90;1.58;;;12.40;91.00;;;;;;4934957;29;20027;-77
2021/05/25 10:19:58;;;;;;;4.57;2.50;;;12.70;90.80;;;;;;4934396;29;20039;-85
2021/05/25 10:22:25;;;;;;;5.05;2.95;;;12.90;90.50;;;;;;4917548;29;20432;-77
2021/05/25 10:24:54;;;;;;;7.53;2.92;;;12.90;90.30;;;;;;4934585;29;20035;-78
2021/05/25 10:27:21;;;;;;;8.38;3.08;;;12.90;90.10;;;;;;4934378;29;20098;-78
2021/05/25 10:29:46;;;;;;;6.35;3.35;;;12.80;90.20;;;;;;4917628;29;20055;-78
2021/05/25 10:32:24;;;;;;;6.95;3.00;;;12.70;90.70;;;;;;4917240;29;20082;-77
2021/05/25 10:34:52;;;;;;;6.07;2.85;;;12.70;91.00;;;;;;4917592;29;20446;-76
2021/05/25 10:37:19;;;;;;;6.78;3.28;;;12.60;91.10;;;;;;4917140;29;20505;-78
2021/05/25 10:39:46;;;;;;;8.02;2.97;;;12.50;91.20;;;;;;4918684;29;20387;-78
2021/05/25 10:42:27;;;;;;;3.88;2.28;;;12.30;90.90;;;;;;4937885;29;20036;-76
2021/05/25 10:45:00;;;;;;;;;;;12.20;90.90;;;;;;4938897;29;20031;-77
2021/05/25 10:50:25;;;;;;;4.80;2.70;;;11.90;90.30;;;;;;4937757;29;20027;-78
2021/05/25 10:52:57;;;;;;;5.47;2.80;;;11.80;90.20;;;;;;4921589;29;20035;-77
2021/05/25 10:55:33;;;;;;;4.80;2.45;;;11.80;90.20;;;;;;4938366;29;20089;-78
2021/05/25 10:58:00;;;;;;;7.65;2.80;;;11.90;90.00;;;;;;4938069;29;20036;-77
2021/05/25 11:00:40;;;;;;;7.85;2.65;;;11.90;90.00;;;;;;4938243;29;20057;-76
2021/05/25 11:03:09;;;;;;;6.40;2.88;;;12.00;89.80;;;;;;4937656;29;20035;-78
2021/05/25 11:05:35;;;;;;;8.23;3.22;;;12.10;89.80;;;;;;4954188;29;20047;-77
2021/05/25 11:08:14;;;;;;;7.53;4.53;;;12.30;89.80;;;;;;4939640;29;20034;-82
2021/05/25 11:10:57;;;;;;;7.57;2.35;;;12.50;89.60;;;;;;4940092;29;20028;-76
2021/05/25 11:13:30;;;;;;;5.68;2.35;;;12.90;88.90;;;;;;4939467;29;20468;-77
2021/05/25 11:16:20;;;;;;;3.78;2.30;;;13.40;87.30;;;;;;4956902;29;20030;-77
2021/05/25 11:24:30;;;;;;;5.00;1.60;;;14.00;80.70;;;;;;4955815;29;20039;-79
2021/05/25 11:27:00;;;;;;;3.03;1.40;;;14.20;78.60;;;;;;4939020;29;20050;-76
2021/05/25 11:29:27;;;;;;;2.25;1.30;;;14.40;78.10;;;;;;4956223;29;20038;-78
2021/05/25 11:31:56;;;;;;;4.20;1.50;;;14.60;77.50;;;;;;4939343;29;20456;-77
2021/05/25 11:34:24;;;;;;;6.85;1.50;;;14.70;76.70;;;;;;4956172;29;20301;-77
2021/05/25 11:36:58;;;;;;;2.05;0.90;;;14.80;75.20;;;;;;4956271;29;20047;-76
2021/05/25 11:39:25;;;;;;;2.88;1.25;;;14.90;73.60;;;;;;4955703;29;20042;-77
2021/05/25 11:41:51;;;;;;;7.30;1.30;;;14.90;71.40;;;;;;4939046;29;20360;-77
2021/05/25 11:44:19;;;;;;;4.32;1.90;;;15.00;71.30;;;;;;4954605;29;20031;-77
2021/05/25 11:46:50;;;;;;;5.00;1.45;;;15.10;70.90;;;;;;4956557;29;20024;-75
2021/05/25 11:49:18;;;;;;;2.83;1.00;;;15.00;69.50;;;;;;4938227;29;20019;-76
2021/05/25 11:51:44;;;;;;;1.63;1.00;;;14.90;69.30;;;;;;4937880;29;20425;-78
2021/05/25 11:54:19;;;;;;;2.88;1.58;;;14.80;70.40;;;;;;4938264;29;20032;-76
2021/05/25 11:56:50;;;;;;;1.73;0.98;;;14.80;70.40;;;;;;4955777;29;20058;-76
2021/05/25 11:59:21;;;;;;;2.83;1.25;;;14.80;68.00;;;;;;4938203;29;20081;-76
2021/05/25 12:01:54;;;;;;;2.97;1.15;;;14.80;67.60;;;;;;4938810;29;20038;-76
2021/05/25 12:04:21;;;;;;;2.10;1.08;;;14.80;67.90;;;;;;4953762;28;20102;-76
2021/05/25 12:06:58;;;;;;;5.00;1.30;;;14.90;67.90;;;;;;4938435;29;20082;-76
2021/05/25 12:09:29;;;;;;;4.20;1.05;;;15.00;68.30;;;;;;4938021;29;20023;-75
2021/05/25 12:11:57;;;;;;;2.35;1.52;;;15.20;68.70;;;;;;4938697;29;20094;-75
2021/05/25 12:14:29;;;;;;;1.95;0.75;;;15.30;66.80;;;;;;4955235;29;20028;-76
2021/05/25 12:17:05;;;;;;;3.47;1.23;;;15.40;66.00;;;;;;4938383;29;20127;-76
2021/05/25 12:19:31;;;;;;;1.67;0.88;;;15.70;66.20;;;;;;4954974;29;20027;-76
2021/05/25 12:22:05;;;;;;;2.05;0.93;;;15.90;65.20;;;;;;4938118;29;20023;-76
2021/05/25 12:24:35;;;;;;;2.78;0.93;;;16.00;65.20;;;;;;4938314;29;20030;-76
2021/05/25 12:27:01;;;;;;;1.30;0.68;;;16.10;63.40;;;;;;4955277;29;20015;-75
2021/05/25 12:29:27;;;;;;;1.33;0.73;;;16.00;61.50;;;;;;4937613;29;20215;-75
2021/05/25 12:31:54;;;;;;;2.20;1.13;;;16.00;60.20;;;;;;4937949;29;20053;-75
2021/05/25 12:34:21;;;;;;;2.90;1.00;;;16.00;59.80;;;;;;4954782;29;20027;-75
2021/05/25 12:36:57;;;;;;;2.78;0.80;;;16.00;59.70;;;;;;4938184;29;20020;-76
2021/05/25 12:39:37;;;;;;;1.95;0.90;;;15.90;60.40;;;;;;4937499;29;20098;-76
2021/05/25 12:42:13;;;;;;;1.85;0.77;;;15.80;60.40;;;;;;4937816;29;20027;-75
2021/05/25 12:44:38;;;;;;;2.15;0.73;;;15.50;61.10;;;;;;4937936;29;20424;-76
2021/05/25 12:47:07;;;;;;;3.47;0.90;;;15.20;62.70;;;;;;4955223;29;20459;-76
2021/05/25 12:49:46;;;;;;;2.42;0.65;;;15.00;63.30;;;;;;4937656;29;20031;-75
2021/05/25 12:52:20;;;;;;;1.35;0.73;;;14.80;64.20;;;;;;4937147;29;20023;-75
2021/05/25 12:55:01;;;;;;;1.77;0.80;;;14.70;65.50;;;;;;4937564;29;20027;-75
2021/05/25 12:57:46;;;;;;;0.82;0.70;;;14.70;66.50;;;;;;4937019;29;20027;-75
2021/05/25 13:00:15;;;;;;;1.58;0.60;;;14.80;65.20;;;;;;4954560;29;20034;-76
2021/05/25 13:02:43;;;;;;;2.47;0.73;;;14.90;62.80;;;;;;4937546;29;20023;-74
2021/05/25 13:05:11;;;;;;;6.82;1.10;;;15.10;63.40;;;;;;4937189;29;20051;-76